sensor_id;sensor_type;location;lat;lon;timestamp;P1;durP1;ratioP1;P2;durP2;ratioP2
59416;SDS011;45222;52.458;20.914;2022-12-01T00:02:58;14.40;;;10.60;;
59416;SDS011;45222;52.458;20.914;2022-12-01T00:06:43;14.20;;;5.80;;
59416;SDS011;45222;52.458;20.914;2022-12-01T00:10:27;14.70;;;11.00;;
59416;SDS011;45222;52.458;20.914;2022-12-01T00:14:12;14.10;;;6.60;;
59416;SDS011;45222;52.458;20.914;2022-12-01T00:17:58;13.10;;;6.10;;
59416;SDS011;45222;52.458;20.914;2022-12-01T00:21:43;15.40;;;12.00;;
59416;SDS011;45222;52.458;20.914;2022-12-01T00:25:30;16.10;;;5.90;;
59416;SDS011;45222;52.458;20.914;2022-12-01T00:29:15;17.00;;;7.50;;
59416;SDS011;45222;52.458;20.914;2022-12-01T00:32:59;15.10;;;6.30;;
59416;SDS011;45222;52.458;20.914;2022-12-01T00:36:44;16.60;;;7.00;;
59416;SDS011;45222;52.458;20.914;2022-12-01T00:40:28;15.30;;;6.50;;
59416;SDS011;45222;52.458;20.914;2022-12-01T00:44:13;15.30;;;6.60;;
59416;SDS011;45222;52.458;20.914;2022-12-01T00:47:57;15.70;;;12.50;;
59416;SDS011;45222;52.458;20.914;2022-12-01T00:51:42;15.70;;;6.90;;
59416;SDS011;45222;52.458;20.914;2022-12-01T00:55:27;15.60;;;12.20;;
59416;SDS011;45222;52.458;20.914;2022-12-01T00:59:11;17.40;;;7.40;;
59416;SDS011;45222;52.458;20.914;2022-12-01T01:02:56;16.50;;;12.20;;
59416;SDS011;45222;52.458;20.914;2022-12-01T01:06:41;15.10;;;12.20;;
59416;SDS011;45222;52.458;20.914;2022-12-01T01:10:25;15.50;;;6.60;;
59416;SDS011;45222;52.458;20.914;2022-12-01T01:14:10;15.20;;;6.50;;
59416;SDS011;45222;52.458;20.914;2022-12-01T01:17:55;13.40;;;6.30;;
59416;SDS011;45222;52.458;20.914;2022-12-01T01:21:39;17.30;;;14.10;;
59416;SDS011;45222;52.458;20.914;2022-12-01T01:25:24;15.60;;;12.30;;
59416;SDS011;45222;52.458;20.914;2022-12-01T01:29:09;19.80;;;8.20;;
59416;SDS011;45222;52.458;20.914;2022-12-01T01:32:53;18.20;;;7.80;;
59416;SDS011;45222;52.458;20.914;2022-12-01T01:36:38;16.00;;;12.60;;
59416;SDS011;45222;52.458;20.914;2022-12-01T01:40:22;17.00;;;7.90;;
59416;SDS011;45222;52.458;20.914;2022-12-01T01:48:32;17.90;;;14.70;;
59416;SDS011;45222;52.458;20.914;2022-12-01T01:52:19;15.20;;;6.50;;
59416;SDS011;45222;52.458;20.914;2022-12-01T01:56:05;16.50;;;6.80;;
59416;SDS011;45222;52.458;20.914;2022-12-01T01:59:51;20.70;;;8.70;;
59416;SDS011;45222;52.458;20.914;2022-12-01T02:03:38;15.80;;;13.00;;
59416;SDS011;45222;52.458;20.914;2022-12-01T02:07:24;16.30;;;13.00;;
59416;SDS011;45222;52.458;20.914;2022-12-01T02:15:34;17.90;;;14.00;;
59416;SDS011;45222;52.458;20.914;2022-12-01T02:19:40;17.90;;;14.50;;
59416;SDS011;45222;52.458;20.914;2022-12-01T02:23:56;17.90;;;8.10;;
59416;SDS011;45222;52.458;20.914;2022-12-01T02:28:05;15.90;;;12.90;;
59416;SDS011;45222;52.458;20.914;2022-12-01T02:32:06;15.60;;;7.00;;
59416;SDS011;45222;52.458;20.914;2022-12-01T02:35:59;17.20;;;8.40;;
59416;SDS011;45222;52.458;20.914;2022-12-01T02:39:50;18.60;;;14.60;;
59416;SDS011;45222;52.458;20.914;2022-12-01T02:43:41;19.00;;;16.00;;
59416;SDS011;45222;52.458;20.914;2022-12-01T02:47:33;21.60;;;9.30;;
59416;SDS011;45222;52.458;20.914;2022-12-01T02:51:21;22.40;;;9.70;;
59416;SDS011;45222;52.458;20.914;2022-12-01T02:55:12;16.00;;;13.60;;
59416;SDS011;45222;52.458;20.914;2022-12-01T02:58:56;16.20;;;7.80;;
59416;SDS011;45222;52.458;20.914;2022-12-01T03:02:42;17.20;;;15.10;;
59416;SDS011;45222;52.458;20.914;2022-12-01T03:06:49;19.10;;;16.10;;
59416;SDS011;45222;52.458;20.914;2022-12-01T03:10:42;21.30;;;8.80;;
59416;SDS011;45222;52.458;20.914;2022-12-01T03:18:20;21.70;;;9.90;;
59416;SDS011;45222;52.458;20.914;2022-12-01T03:22:11;17.20;;;14.50;;
59416;SDS011;45222;52.458;20.914;2022-12-01T03:26:02;18.60;;;15.80;;
59416;SDS011;45222;52.458;20.914;2022-12-01T03:29:49;17.50;;;8.00;;
59416;SDS011;45222;52.458;20.914;2022-12-01T03:33:38;17.00;;;8.10;;
59416;SDS011;45222;52.458;20.914;2022-12-01T03:37:30;20.30;;;17.20;;
59416;SDS011;45222;52.458;20.914;2022-12-01T03:41:20;21.10;;;9.40;;
59416;SDS011;45222;52.458;20.914;2022-12-01T03:45:10;17.10;;;14.70;;
59416;SDS011;45222;52.458;20.914;2022-12-01T03:49:00;17.80;;;14.80;;
59416;SDS011;45222;52.458;20.914;2022-12-01T03:52:47;19.70;;;9.20;;
59416;SDS011;45222;52.458;20.914;2022-12-01T03:56:42;18.10;;;8.50;;
59416;SDS011;45222;52.458;20.914;2022-12-01T04:00:30;20.30;;;9.20;;
59416;SDS011;45222;52.458;20.914;2022-12-01T04:04:15;15.90;;;7.40;;
59416;SDS011;45222;52.458;20.914;2022-12-01T04:08:00;19.50;;;16.90;;
59416;SDS011;45222;52.458;20.914;2022-12-01T04:11:44;21.30;;;9.40;;
59416;SDS011;45222;52.458;20.914;2022-12-01T04:15:48;18.70;;;15.80;;
59416;SDS011;45222;52.458;20.914;2022-12-01T04:19:33;21.20;;;9.10;;
59416;SDS011;45222;52.458;20.914;2022-12-01T04:23:17;16.50;;;14.20;;
59416;SDS011;45222;52.458;20.914;2022-12-01T04:27:17;19.50;;;7.80;;
59416;SDS011;45222;52.458;20.914;2022-12-01T04:31:02;19.40;;;16.70;;
59416;SDS011;45222;52.458;20.914;2022-12-01T04:34:46;17.00;;;8.50;;
59416;SDS011;45222;52.458;20.914;2022-12-01T04:38:31;17.50;;;7.30;;
59416;SDS011;45222;52.458;20.914;2022-12-01T04:42:15;20.30;;;17.10;;
59416;SDS011;45222;52.458;20.914;2022-12-01T04:46:01;22.60;;;9.70;;
59416;SDS011;45222;52.458;20.914;2022-12-01T04:49:45;19.20;;;16.00;;
59416;SDS011;45222;52.458;20.914;2022-12-01T04:53:30;18.70;;;8.40;;
59416;SDS011;45222;52.458;20.914;2022-12-01T04:57:15;21.90;;;9.80;;
59416;SDS011;45222;52.458;20.914;2022-12-01T05:01:00;17.30;;;8.90;;
59416;SDS011;45222;52.458;20.914;2022-12-01T05:04:46;18.90;;;16.20;;
59416;SDS011;45222;52.458;20.914;2022-12-01T05:08:30;19.30;;;9.50;;
59416;SDS011;45222;52.458;20.914;2022-12-01T05:12:16;19.10;;;8.10;;
59416;SDS011;45222;52.458;20.914;2022-12-01T05:16:04;18.30;;;8.10;;
59416;SDS011;45222;52.458;20.914;2022-12-01T05:19:50;18.10;;;8.20;;
59416;SDS011;45222;52.458;20.914;2022-12-01T05:23:53;19.60;;;16.80;;
59416;SDS011;45222;52.458;20.914;2022-12-01T05:27:38;17.50;;;15.60;;
59416;SDS011;45222;52.458;20.914;2022-12-01T05:31:22;24.30;;;11.20;;
59416;SDS011;45222;52.458;20.914;2022-12-01T05:35:07;16.80;;;14.30;;
59416;SDS011;45222;52.458;20.914;2022-12-01T05:38:52;16.80;;;13.70;;
59416;SDS011;45222;52.458;20.914;2022-12-01T05:42:37;18.70;;;9.30;;
59416;SDS011;45222;52.458;20.914;2022-12-01T05:46:22;17.50;;;15.20;;
59416;SDS011;45222;52.458;20.914;2022-12-01T05:50:07;18.20;;;8.80;;
59416;SDS011;45222;52.458;20.914;2022-12-01T05:53:52;18.60;;;16.60;;
59416;SDS011;45222;52.458;20.914;2022-12-01T05:57:37;16.60;;;14.70;;
59416;SDS011;45222;52.458;20.914;2022-12-01T06:01:22;21.60;;;10.40;;
59416;SDS011;45222;52.458;20.914;2022-12-01T06:05:07;22.90;;;10.70;;
59416;SDS011;45222;52.458;20.914;2022-12-01T06:08:53;19.30;;;9.90;;
59416;SDS011;45222;52.458;20.914;2022-12-01T06:12:45;17.10;;;8.50;;
59416;SDS011;45222;52.458;20.914;2022-12-01T06:16:33;22.70;;;9.90;;
59416;SDS011;45222;52.458;20.914;2022-12-01T06:20:17;19.00;;;16.40;;
59416;SDS011;45222;52.458;20.914;2022-12-01T06:24:02;22.30;;;10.40;;
59416;SDS011;45222;52.458;20.914;2022-12-01T06:27:47;16.70;;;14.30;;
59416;SDS011;45222;52.458;20.914;2022-12-01T06:31:32;18.00;;;15.50;;
59416;SDS011;45222;52.458;20.914;2022-12-01T06:35:16;16.50;;;8.50;;
59416;SDS011;45222;52.458;20.914;2022-12-01T06:39:01;18.40;;;8.50;;
59416;SDS011;45222;52.458;20.914;2022-12-01T06:42:51;18.80;;;7.50;;
59416;SDS011;45222;52.458;20.914;2022-12-01T06:46:36;18.50;;;15.40;;
59416;SDS011;45222;52.458;20.914;2022-12-01T06:50:20;22.20;;;9.90;;
59416;SDS011;45222;52.458;20.914;2022-12-01T06:54:05;20.10;;;10.40;;
59416;SDS011;45222;52.458;20.914;2022-12-01T06:57:50;17.80;;;8.00;;
59416;SDS011;45222;52.458;20.914;2022-12-01T07:01:34;18.90;;;9.20;;
59416;SDS011;45222;52.458;20.914;2022-12-01T07:05:19;15.30;;;13.50;;
59416;SDS011;45222;52.458;20.914;2022-12-01T07:09:03;16.90;;;14.70;;
59416;SDS011;45222;52.458;20.914;2022-12-01T07:12:48;15.20;;;7.30;;
59416;SDS011;45222;52.458;20.914;2022-12-01T07:16:32;16.00;;;8.00;;
59416;SDS011;45222;52.458;20.914;2022-12-01T07:20:17;19.00;;;8.40;;
59416;SDS011;45222;52.458;20.914;2022-12-01T07:24:02;22.60;;;10.50;;
59416;SDS011;45222;52.458;20.914;2022-12-01T07:27:47;19.30;;;9.10;;
59416;SDS011;45222;52.458;20.914;2022-12-01T07:31:31;21.70;;;9.60;;
59416;SDS011;45222;52.458;20.914;2022-12-01T07:35:16;19.20;;;8.80;;
59416;SDS011;45222;52.458;20.914;2022-12-01T07:39:03;18.90;;;15.70;;
59416;SDS011;45222;52.458;20.914;2022-12-01T07:42:49;18.70;;;8.10;;
59416;SDS011;45222;52.458;20.914;2022-12-01T07:46:34;16.20;;;7.90;;
59416;SDS011;45222;52.458;20.914;2022-12-01T07:50:19;18.80;;;15.80;;
59416;SDS011;45222;52.458;20.914;2022-12-01T07:54:04;18.20;;;15.20;;
59416;SDS011;45222;52.458;20.914;2022-12-01T07:57:49;20.30;;;8.80;;
59416;SDS011;45222;52.458;20.914;2022-12-01T08:01:33;18.20;;;14.80;;
59416;SDS011;45222;52.458;20.914;2022-12-01T08:05:18;16.80;;;8.30;;
59416;SDS011;45222;52.458;20.914;2022-12-01T08:09:02;18.10;;;8.40;;
59416;SDS011;45222;52.458;20.914;2022-12-01T08:12:47;22.40;;;17.60;;
59416;SDS011;45222;52.458;20.914;2022-12-01T08:16:31;19.60;;;16.00;;
59416;SDS011;45222;52.458;20.914;2022-12-01T08:20:16;22.90;;;10.60;;
59416;SDS011;45222;52.458;20.914;2022-12-01T08:24:01;22.80;;;9.90;;
59416;SDS011;45222;52.458;20.914;2022-12-01T08:27:46;20.30;;;15.90;;
59416;SDS011;45222;52.458;20.914;2022-12-01T08:31:31;19.70;;;16.20;;
59416;SDS011;45222;52.458;20.914;2022-12-01T08:35:18;19.70;;;16.40;;
59416;SDS011;45222;52.458;20.914;2022-12-01T08:39:03;17.80;;;8.50;;
59416;SDS011;45222;52.458;20.914;2022-12-01T08:42:51;19.00;;;15.40;;
59416;SDS011;45222;52.458;20.914;2022-12-01T08:46:35;18.20;;;9.30;;
59416;SDS011;45222;52.458;20.914;2022-12-01T08:50:20;20.20;;;9.70;;
59416;SDS011;45222;52.458;20.914;2022-12-01T08:54:05;16.90;;;13.10;;
59416;SDS011;45222;52.458;20.914;2022-12-01T08:57:49;16.90;;;13.90;;
59416;SDS011;45222;52.458;20.914;2022-12-01T09:01:34;18.10;;;7.90;;
59416;SDS011;45222;52.458;20.914;2022-12-01T09:05:33;18.70;;;15.50;;
59416;SDS011;45222;52.458;20.914;2022-12-01T09:09:19;19.60;;;16.10;;
59416;SDS011;45222;52.458;20.914;2022-12-01T09:13:05;18.60;;;14.90;;
59416;SDS011;45222;52.458;20.914;2022-12-01T09:16:50;20.60;;;9.30;;
59416;SDS011;45222;52.458;20.914;2022-12-01T09:20:34;21.30;;;10.70;;
59416;SDS011;45222;52.458;20.914;2022-12-01T09:24:19;17.80;;;8.90;;
59416;SDS011;45222;52.458;20.914;2022-12-01T09:28:05;19.30;;;16.60;;
59416;SDS011;45222;52.458;20.914;2022-12-01T09:31:49;16.10;;;7.20;;
59416;SDS011;45222;52.458;20.914;2022-12-01T09:35:34;23.10;;;10.10;;
59416;SDS011;45222;52.458;20.914;2022-12-01T09:39:19;19.90;;;15.10;;
59416;SDS011;45222;52.458;20.914;2022-12-01T09:43:05;23.30;;;9.50;;
59416;SDS011;45222;52.458;20.914;2022-12-01T09:47:05;21.60;;;16.60;;
59416;SDS011;45222;52.458;20.914;2022-12-01T09:50:56;19.40;;;9.50;;
59416;SDS011;45222;52.458;20.914;2022-12-01T09:54:40;16.70;;;8.20;;
59416;SDS011;45222;52.458;20.914;2022-12-01T09:58:26;16.90;;;8.20;;
59416;SDS011;45222;52.458;20.914;2022-12-01T10:02:19;21.00;;;16.90;;
59416;SDS011;45222;52.458;20.914;2022-12-01T10:06:12;21.80;;;10.10;;
59416;SDS011;45222;52.458;20.914;2022-12-01T10:10:03;21.30;;;9.70;;
59416;SDS011;45222;52.458;20.914;2022-12-01T10:13:49;17.60;;;14.20;;
59416;SDS011;45222;52.458;20.914;2022-12-01T10:17:35;20.00;;;15.40;;
59416;SDS011;45222;52.458;20.914;2022-12-01T10:21:32;20.50;;;16.10;;
59416;SDS011;45222;52.458;20.914;2022-12-01T10:25:37;20.30;;;16.40;;
59416;SDS011;45222;52.458;20.914;2022-12-01T10:29:33;20.00;;;16.50;;
59416;SDS011;45222;52.458;20.914;2022-12-01T10:33:31;23.20;;;10.50;;
59416;SDS011;45222;52.458;20.914;2022-12-01T10:37:22;19.30;;;15.50;;
59416;SDS011;45222;52.458;20.914;2022-12-01T10:41:10;18.50;;;8.90;;
59416;SDS011;45222;52.458;20.914;2022-12-01T10:44:58;21.70;;;9.40;;
59416;SDS011;45222;52.458;20.914;2022-12-01T10:48:51;20.70;;;16.70;;
59416;SDS011;45222;52.458;20.914;2022-12-01T10:52:38;21.80;;;17.90;;
59416;SDS011;45222;52.458;20.914;2022-12-01T10:56:24;20.70;;;9.50;;
59416;SDS011;45222;52.458;20.914;2022-12-01T11:00:19;21.60;;;9.70;;
59416;SDS011;45222;52.458;20.914;2022-12-01T11:04:06;23.50;;;11.20;;
59416;SDS011;45222;52.458;20.914;2022-12-01T11:08:17;20.20;;;10.00;;
59416;SDS011;45222;52.458;20.914;2022-12-01T11:12:11;20.40;;;17.20;;
59416;SDS011;45222;52.458;20.914;2022-12-01T11:15:58;23.60;;;19.10;;
59416;SDS011;45222;52.458;20.914;2022-12-01T11:19:44;19.90;;;9.30;;
59416;SDS011;45222;52.458;20.914;2022-12-01T11:23:28;21.10;;;8.60;;
59416;SDS011;45222;52.458;20.914;2022-12-01T11:27:15;21.90;;;17.30;;
59416;SDS011;45222;52.458;20.914;2022-12-01T11:31:03;22.30;;;10.00;;
59416;SDS011;45222;52.458;20.914;2022-12-01T11:34:51;23.60;;;18.20;;
59416;SDS011;45222;52.458;20.914;2022-12-01T11:42:24;15.90;;;7.30;;
59416;SDS011;45222;52.458;20.914;2022-12-01T11:46:11;26.10;;;19.20;;
59416;SDS011;45222;52.458;20.914;2022-12-01T11:49:56;23.40;;;17.40;;
59416;SDS011;45222;52.458;20.914;2022-12-01T11:53:43;23.80;;;19.00;;
59416;SDS011;45222;52.458;20.914;2022-12-01T11:57:28;24.80;;;11.60;;
59416;SDS011;45222;52.458;20.914;2022-12-01T12:01:15;25.00;;;20.10;;
59416;SDS011;45222;52.458;20.914;2022-12-01T12:05:18;21.20;;;10.60;;
59416;SDS011;45222;52.458;20.914;2022-12-01T12:17:54;24.60;;;19.20;;
59416;SDS011;45222;52.458;20.914;2022-12-01T12:21:56;28.60;;;12.10;;
59416;SDS011;45222;52.458;20.914;2022-12-01T12:25:53;27.00;;;20.40;;
59416;SDS011;45222;52.458;20.914;2022-12-01T12:29:49;22.10;;;10.10;;
59416;SDS011;45222;52.458;20.914;2022-12-01T12:33:59;22.50;;;9.30;;
59416;SDS011;45222;52.458;20.914;2022-12-01T12:37:58;26.60;;;10.70;;
59416;SDS011;45222;52.458;20.914;2022-12-01T12:41:47;31.80;;;12.80;;
59416;SDS011;45222;52.458;20.914;2022-12-01T12:45:39;28.30;;;13.30;;
59416;SDS011;45222;52.458;20.914;2022-12-01T12:49:36;28.40;;;19.60;;
59416;SDS011;45222;52.458;20.914;2022-12-01T12:53:27;28.40;;;20.70;;
59416;SDS011;45222;52.458;20.914;2022-12-01T12:57:32;28.40;;;20.90;;
59416;SDS011;45222;52.458;20.914;2022-12-01T13:01:20;25.90;;;10.60;;
59416;SDS011;45222;52.458;20.914;2022-12-01T13:05:08;26.30;;;11.00;;
59416;SDS011;45222;52.458;20.914;2022-12-01T13:09:02;30.00;;;22.40;;
59416;SDS011;45222;52.458;20.914;2022-12-01T13:12:55;33.30;;;13.20;;
59416;SDS011;45222;52.458;20.914;2022-12-01T13:16:44;28.30;;;20.50;;
59416;SDS011;45222;52.458;20.914;2022-12-01T13:20:30;27.30;;;12.30;;
59416;SDS011;45222;52.458;20.914;2022-12-01T13:24:17;27.50;;;21.00;;
59416;SDS011;45222;52.458;20.914;2022-12-01T13:28:04;28.30;;;11.50;;
59416;SDS011;45222;52.458;20.914;2022-12-01T13:32:00;25.90;;;12.10;;
59416;SDS011;45222;52.458;20.914;2022-12-01T13:35:45;33.40;;;23.90;;
59416;SDS011;45222;52.458;20.914;2022-12-01T13:39:36;21.70;;;9.20;;
59416;SDS011;45222;52.458;20.914;2022-12-01T13:43:22;19.00;;;8.50;;
59416;SDS011;45222;52.458;20.914;2022-12-01T13:51:13;24.40;;;18.40;;
59416;SDS011;45222;52.458;20.914;2022-12-01T13:54:59;24.50;;;10.20;;
59416;SDS011;45222;52.458;20.914;2022-12-01T13:59:02;24.90;;;18.30;;
59416;SDS011;45222;52.458;20.914;2022-12-01T14:03:37;26.60;;;10.70;;
59416;SDS011;45222;52.458;20.914;2022-12-01T14:11:17;25.60;;;18.30;;
59416;SDS011;45222;52.458;20.914;2022-12-01T14:15:04;25.50;;;19.10;;
59416;SDS011;45222;52.458;20.914;2022-12-01T14:19:09;22.80;;;9.90;;
59416;SDS011;45222;52.458;20.914;2022-12-01T14:23:13;20.60;;;6.80;;
59416;SDS011;45222;52.458;20.914;2022-12-01T14:27:01;24.40;;;9.70;;
59416;SDS011;45222;52.458;20.914;2022-12-01T14:31:04;20.40;;;8.90;;
59416;SDS011;45222;52.458;20.914;2022-12-01T14:34:59;22.10;;;15.20;;
59416;SDS011;45222;52.458;20.914;2022-12-01T14:38:46;17.90;;;7.50;;
59416;SDS011;45222;52.458;20.914;2022-12-01T14:42:34;15.40;;;6.70;;
59416;SDS011;45222;52.458;20.914;2022-12-01T14:46:39;19.30;;;14.80;;
59416;SDS011;45222;52.458;20.914;2022-12-01T14:50:30;17.90;;;7.30;;
59416;SDS011;45222;52.458;20.914;2022-12-01T14:54:21;18.70;;;13.20;;
59416;SDS011;45222;52.458;20.914;2022-12-01T15:01:57;18.30;;;6.90;;
59416;SDS011;45222;52.458;20.914;2022-12-01T15:05:51;19.00;;;8.20;;
59416;SDS011;45222;52.458;20.914;2022-12-01T15:09:41;18.70;;;7.90;;
59416;SDS011;45222;52.458;20.914;2022-12-01T15:13:46;19.80;;;15.10;;
59416;SDS011;45222;52.458;20.914;2022-12-01T15:17:32;17.30;;;7.20;;
59416;SDS011;45222;52.458;20.914;2022-12-01T15:21:19;21.30;;;15.00;;
59416;SDS011;45222;52.458;20.914;2022-12-01T15:25:07;19.20;;;7.60;;
59416;SDS011;45222;52.458;20.914;2022-12-01T15:33:10;19.30;;;8.30;;
59416;SDS011;45222;52.458;20.914;2022-12-01T15:37:02;13.90;;;4.40;;
59416;SDS011;45222;52.458;20.914;2022-12-01T15:40:50;15.10;;;11.30;;
59416;SDS011;45222;52.458;20.914;2022-12-01T15:44:38;15.10;;;11.60;;
59416;SDS011;45222;52.458;20.914;2022-12-01T15:48:27;11.10;;;5.00;;
59416;SDS011;45222;52.458;20.914;2022-12-01T15:52:14;15.80;;;11.60;;
59416;SDS011;45222;52.458;20.914;2022-12-01T15:56:04;12.60;;;4.70;;
59416;SDS011;45222;52.458;20.914;2022-12-01T15:59:56;12.60;;;9.50;;
59416;SDS011;45222;52.458;20.914;2022-12-01T16:03:47;12.80;;;9.50;;
59416;SDS011;45222;52.458;20.914;2022-12-01T16:07:35;14.90;;;5.50;;
59416;SDS011;45222;52.458;20.914;2022-12-01T16:11:20;15.00;;;6.20;;
59416;SDS011;45222;52.458;20.914;2022-12-01T16:15:13;12.20;;;5.10;;
59416;SDS011;45222;52.458;20.914;2022-12-01T16:19:01;17.60;;;13.90;;
59416;SDS011;45222;52.458;20.914;2022-12-01T16:22:48;16.30;;;12.80;;
59416;SDS011;45222;52.458;20.914;2022-12-01T16:26:44;15.40;;;6.80;;
59416;SDS011;45222;52.458;20.914;2022-12-01T16:30:34;14.80;;;5.90;;
59416;SDS011;45222;52.458;20.914;2022-12-01T16:34:20;14.90;;;6.40;;
59416;SDS011;45222;52.458;20.914;2022-12-01T16:38:09;13.40;;;6.00;;
59416;SDS011;45222;52.458;20.914;2022-12-01T16:41:58;12.80;;;5.70;;
59416;SDS011;45222;52.458;20.914;2022-12-01T16:45:43;13.00;;;5.90;;
59416;SDS011;45222;52.458;20.914;2022-12-01T16:49:28;14.00;;;5.50;;
59416;SDS011;45222;52.458;20.914;2022-12-01T16:53:13;18.20;;;12.70;;
59416;SDS011;45222;52.458;20.914;2022-12-01T16:56:58;16.20;;;12.10;;
59416;SDS011;45222;52.458;20.914;2022-12-01T17:00:43;16.40;;;7.00;;
59416;SDS011;45222;52.458;20.914;2022-12-01T17:04:27;18.20;;;12.50;;
59416;SDS011;45222;52.458;20.914;2022-12-01T17:08:12;16.50;;;6.70;;
59416;SDS011;45222;52.458;20.914;2022-12-01T17:11:58;17.30;;;6.90;;
59416;SDS011;45222;52.458;20.914;2022-12-01T17:15:43;16.70;;;7.00;;
59416;SDS011;45222;52.458;20.914;2022-12-01T17:19:29;13.10;;;5.50;;
59416;SDS011;45222;52.458;20.914;2022-12-01T17:23:13;18.10;;;7.50;;
59416;SDS011;45222;52.458;20.914;2022-12-01T17:26:58;15.40;;;6.90;;
59416;SDS011;45222;52.458;20.914;2022-12-01T17:30:42;17.20;;;13.20;;
59416;SDS011;45222;52.458;20.914;2022-12-01T17:34:27;15.20;;;6.60;;
59416;SDS011;45222;52.458;20.914;2022-12-01T17:38:11;19.20;;;14.20;;
59416;SDS011;45222;52.458;20.914;2022-12-01T17:41:56;16.60;;;7.80;;
59416;SDS011;45222;52.458;20.914;2022-12-01T17:45:42;20.50;;;8.40;;
59416;SDS011;45222;52.458;20.914;2022-12-01T17:49:26;19.00;;;8.40;;
59416;SDS011;45222;52.458;20.914;2022-12-01T17:53:11;24.70;;;21.60;;
59416;SDS011;45222;52.458;20.914;2022-12-01T17:56:55;28.80;;;12.90;;
59416;SDS011;45222;52.458;20.914;2022-12-01T18:00:40;27.20;;;21.20;;
59416;SDS011;45222;52.458;20.914;2022-12-01T18:04:24;25.00;;;19.80;;
59416;SDS011;45222;52.458;20.914;2022-12-01T18:08:09;28.20;;;12.80;;
59416;SDS011;45222;52.458;20.914;2022-12-01T18:11:54;19.90;;;8.90;;
59416;SDS011;45222;52.458;20.914;2022-12-01T18:15:39;33.60;;;15.70;;
59416;SDS011;45222;52.458;20.914;2022-12-01T18:19:23;24.90;;;10.80;;
59416;SDS011;45222;52.458;20.914;2022-12-01T18:23:08;32.60;;;26.80;;
59416;SDS011;45222;52.458;20.914;2022-12-01T18:26:54;32.00;;;13.70;;
59416;SDS011;45222;52.458;20.914;2022-12-01T18:30:38;30.70;;;24.90;;
59416;SDS011;45222;52.458;20.914;2022-12-01T18:34:23;22.30;;;11.30;;
59416;SDS011;45222;52.458;20.914;2022-12-01T18:38:08;22.30;;;10.70;;
59416;SDS011;45222;52.458;20.914;2022-12-01T18:41:53;21.00;;;9.40;;
59416;SDS011;45222;52.458;20.914;2022-12-01T18:45:38;23.20;;;9.40;;
59416;SDS011;45222;52.458;20.914;2022-12-01T18:49:23;31.50;;;25.40;;
59416;SDS011;45222;52.458;20.914;2022-12-01T18:53:07;30.20;;;13.50;;
59416;SDS011;45222;52.458;20.914;2022-12-01T18:56:52;31.80;;;15.60;;
59416;SDS011;45222;52.458;20.914;2022-12-01T19:00:40;28.60;;;12.50;;
59416;SDS011;45222;52.458;20.914;2022-12-01T19:04:25;26.40;;;12.50;;
59416;SDS011;45222;52.458;20.914;2022-12-01T19:08:10;27.60;;;13.00;;
59416;SDS011;45222;52.458;20.914;2022-12-01T19:11:54;24.70;;;10.70;;
59416;SDS011;45222;52.458;20.914;2022-12-01T19:15:42;26.00;;;11.90;;
59416;SDS011;45222;52.458;20.914;2022-12-01T19:19:26;31.00;;;26.40;;
59416;SDS011;45222;52.458;20.914;2022-12-01T19:23:11;27.80;;;13.10;;
59416;SDS011;45222;52.458;20.914;2022-12-01T19:26:56;25.90;;;22.00;;
59416;SDS011;45222;52.458;20.914;2022-12-01T19:30:41;24.90;;;11.70;;
59416;SDS011;45222;52.458;20.914;2022-12-01T19:34:25;28.70;;;24.70;;
59416;SDS011;45222;52.458;20.914;2022-12-01T19:38:10;25.70;;;10.60;;
59416;SDS011;45222;52.458;20.914;2022-12-01T19:41:55;28.90;;;13.60;;
59416;SDS011;45222;52.458;20.914;2022-12-01T19:45:40;29.50;;;13.30;;
59416;SDS011;45222;52.458;20.914;2022-12-01T19:49:25;27.40;;;13.80;;
59416;SDS011;45222;52.458;20.914;2022-12-01T19:53:09;30.20;;;14.20;;
59416;SDS011;45222;52.458;20.914;2022-12-01T19:56:54;28.70;;;12.80;;
59416;SDS011;45222;52.458;20.914;2022-12-01T20:00:39;30.90;;;13.80;;
59416;SDS011;45222;52.458;20.914;2022-12-01T20:04:24;30.20;;;13.50;;
59416;SDS011;45222;52.458;20.914;2022-12-01T20:08:08;29.30;;;22.80;;
59416;SDS011;45222;52.458;20.914;2022-12-01T20:11:56;28.70;;;12.20;;
59416;SDS011;45222;52.458;20.914;2022-12-01T20:15:40;28.40;;;12.60;;
59416;SDS011;45222;52.458;20.914;2022-12-01T20:19:25;21.80;;;9.70;;
59416;SDS011;45222;52.458;20.914;2022-12-01T20:23:10;28.10;;;12.70;;
59416;SDS011;45222;52.458;20.914;2022-12-01T20:26:54;22.70;;;9.90;;
59416;SDS011;45222;52.458;20.914;2022-12-01T20:30:39;33.70;;;13.50;;
59416;SDS011;45222;52.458;20.914;2022-12-01T20:34:25;27.60;;;12.10;;
59416;SDS011;45222;52.458;20.914;2022-12-01T20:38:10;25.10;;;11.20;;
59416;SDS011;45222;52.458;20.914;2022-12-01T20:41:55;24.60;;;11.20;;
59416;SDS011;45222;52.458;20.914;2022-12-01T20:45:39;28.30;;;11.50;;
59416;SDS011;45222;52.458;20.914;2022-12-01T20:49:24;38.70;;;15.50;;
59416;SDS011;45222;52.458;20.914;2022-12-01T20:53:09;31.80;;;15.30;;
59416;SDS011;45222;52.458;20.914;2022-12-01T20:56:54;25.60;;;12.70;;
59416;SDS011;45222;52.458;20.914;2022-12-01T21:00:40;24.00;;;11.00;;
59416;SDS011;45222;52.458;20.914;2022-12-01T21:04:26;30.80;;;13.20;;
59416;SDS011;45222;52.458;20.914;2022-12-01T21:08:11;23.80;;;11.60;;
59416;SDS011;45222;52.458;20.914;2022-12-01T21:11:57;20.50;;;9.70;;
59416;SDS011;45222;52.458;20.914;2022-12-01T21:16:03;30.60;;;25.10;;
59416;SDS011;45222;52.458;20.914;2022-12-01T21:19:53;22.30;;;10.70;;
59416;SDS011;45222;52.458;20.914;2022-12-01T21:23:43;33.60;;;14.20;;
59416;SDS011;45222;52.458;20.914;2022-12-01T21:27:28;20.80;;;9.20;;
59416;SDS011;45222;52.458;20.914;2022-12-01T21:31:13;21.60;;;9.50;;
59416;SDS011;45222;52.458;20.914;2022-12-01T21:35:00;21.90;;;9.70;;
59416;SDS011;45222;52.458;20.914;2022-12-01T21:38:58;19.00;;;7.80;;
59416;SDS011;45222;52.458;20.914;2022-12-01T21:42:55;20.10;;;8.70;;
59416;SDS011;45222;52.458;20.914;2022-12-01T21:46:49;27.00;;;10.20;;
59416;SDS011;45222;52.458;20.914;2022-12-01T21:50:37;27.40;;;23.20;;
59416;SDS011;45222;52.458;20.914;2022-12-01T21:54:22;25.30;;;11.90;;
59416;SDS011;45222;52.458;20.914;2022-12-01T21:58:12;30.70;;;13.00;;
59416;SDS011;45222;52.458;20.914;2022-12-01T22:02:16;25.10;;;12.00;;
59416;SDS011;45222;52.458;20.914;2022-12-01T22:06:19;22.50;;;10.30;;
59416;SDS011;45222;52.458;20.914;2022-12-01T22:14:21;23.00;;;11.50;;
59416;SDS011;45222;52.458;20.914;2022-12-01T22:18:12;28.50;;;23.60;;
59416;SDS011;45222;52.458;20.914;2022-12-01T22:22:13;19.10;;;8.80;;
59416;SDS011;45222;52.458;20.914;2022-12-01T22:26:11;19.40;;;8.40;;
59416;SDS011;45222;52.458;20.914;2022-12-01T22:29:59;21.10;;;8.50;;
59416;SDS011;45222;52.458;20.914;2022-12-01T22:33:54;26.70;;;10.80;;
59416;SDS011;45222;52.458;20.914;2022-12-01T22:41:27;30.30;;;12.50;;
59416;SDS011;45222;52.458;20.914;2022-12-01T22:45:17;27.40;;;11.50;;
59416;SDS011;45222;52.458;20.914;2022-12-01T22:49:09;25.30;;;19.80;;
59416;SDS011;45222;52.458;20.914;2022-12-01T22:53:09;15.00;;;7.60;;